sensor_id;sensor_type;location;lat;lon;timestamp;P1;durP1;ratioP1;P2;durP2;ratioP2
17189;SDS011;8710;49.880;8.272;2022-08-03T00:00:56;2.40;;;1.95;;
17189;SDS011;8710;49.880;8.272;2022-08-03T00:03:23;4.25;;;2.03;;
17189;SDS011;8710;49.880;8.272;2022-08-03T00:05:50;2.15;;;1.90;;
17189;SDS011;8710;49.880;8.272;2022-08-03T00:08:19;2.35;;;2.17;;
17189;SDS011;8710;49.880;8.272;2022-08-03T00:10:46;2.88;;;1.83;;
17189;SDS011;8710;49.880;8.272;2022-08-03T00:13:13;5.22;;;1.90;;
17189;SDS011;8710;49.880;8.272;2022-08-03T00:15:40;1.88;;;1.77;;
17189;SDS011;8710;49.880;8.272;2022-08-03T00:18:07;3.80;;;2.08;;
17189;SDS011;8710;49.880;8.272;2022-08-03T00:20:35;4.05;;;2.35;;
17189;SDS011;8710;49.880;8.272;2022-08-03T00:23:02;4.45;;;1.95;;
17189;SDS011;8710;49.880;8.272;2022-08-03T00:25:31;2.30;;;1.80;;
17189;SDS011;8710;49.880;8.272;2022-08-03T00:27:58;2.50;;;2.30;;
17189;SDS011;8710;49.880;8.272;2022-08-03T00:30:25;9.27;;;1.85;;
17189;SDS011;8710;49.880;8.272;2022-08-03T00:32:52;5.05;;;1.90;;
17189;SDS011;8710;49.880;8.272;2022-08-03T00:35:19;7.90;;;1.90;;
17189;SDS011;8710;49.880;8.272;2022-08-03T00:37:46;4.05;;;1.90;;
17189;SDS011;8710;49.880;8.272;2022-08-03T00:40:14;4.03;;;1.90;;
17189;SDS011;8710;49.880;8.272;2022-08-03T00:42:50;3.53;;;1.83;;
17189;SDS011;8710;49.880;8.272;2022-08-03T00:45:19;4.40;;;1.98;;
17189;SDS011;8710;49.880;8.272;2022-08-03T00:47:47;5.65;;;2.28;;
17189;SDS011;8710;49.880;8.272;2022-08-03T00:50:14;4.68;;;1.90;;
17189;SDS011;8710;49.880;8.272;2022-08-03T00:52:43;4.28;;;2.10;;
17189;SDS011;8710;49.880;8.272;2022-08-03T00:55:10;4.03;;;2.28;;
17189;SDS011;8710;49.880;8.272;2022-08-03T00:57:37;2.70;;;2.13;;
17189;SDS011;8710;49.880;8.272;2022-08-03T01:00:07;2.65;;;1.83;;
17189;SDS011;8710;49.880;8.272;2022-08-03T01:02:36;3.40;;;2.00;;
17189;SDS011;8710;49.880;8.272;2022-08-03T01:05:04;2.10;;;1.90;;
17189;SDS011;8710;49.880;8.272;2022-08-03T01:07:36;1.97;;;1.77;;
17189;SDS011;8710;49.880;8.272;2022-08-03T01:10:12;2.37;;;1.93;;
17189;SDS011;8710;49.880;8.272;2022-08-03T01:12:47;4.83;;;1.90;;
17189;SDS011;8710;49.880;8.272;2022-08-03T01:15:23;2.83;;;1.70;;
17189;SDS011;8710;49.880;8.272;2022-08-03T01:17:54;6.97;;;1.83;;
17189;SDS011;8710;49.880;8.272;2022-08-03T01:20:24;2.53;;;2.00;;
17189;SDS011;8710;49.880;8.272;2022-08-03T01:23:03;2.57;;;1.83;;
17189;SDS011;8710;49.880;8.272;2022-08-03T01:25:44;4.57;;;1.93;;
17189;SDS011;8710;49.880;8.272;2022-08-03T01:28:28;3.23;;;2.10;;
17189;SDS011;8710;49.880;8.272;2022-08-03T01:31:10;6.57;;;2.20;;
17189;SDS011;8710;49.880;8.272;2022-08-03T01:33:41;3.10;;;2.17;;
17189;SDS011;8710;49.880;8.272;2022-08-03T01:36:12;6.00;;;2.13;;
17189;SDS011;8710;49.880;8.272;2022-08-03T01:38:42;3.17;;;1.93;;
17189;SDS011;8710;49.880;8.272;2022-08-03T01:41:16;4.33;;;2.20;;
17189;SDS011;8710;49.880;8.272;2022-08-03T01:43:47;2.67;;;1.97;;
17189;SDS011;8710;49.880;8.272;2022-08-03T01:46:17;3.63;;;1.90;;
17189;SDS011;8710;49.880;8.272;2022-08-03T01:48:47;5.03;;;2.37;;
17189;SDS011;8710;49.880;8.272;2022-08-03T01:51:14;2.73;;;2.00;;
17189;SDS011;8710;49.880;8.272;2022-08-03T01:53:43;2.17;;;1.97;;
17189;SDS011;8710;49.880;8.272;2022-08-03T01:56:11;3.20;;;2.13;;
17189;SDS011;8710;49.880;8.272;2022-08-03T01:58:39;3.43;;;1.70;;
17189;SDS011;8710;49.880;8.272;2022-08-03T02:01:08;2.53;;;2.17;;
17189;SDS011;8710;49.880;8.272;2022-08-03T02:03:39;2.97;;;1.80;;
17189;SDS011;8710;49.880;8.272;2022-08-03T02:06:08;4.00;;;2.40;;
17189;SDS011;8710;49.880;8.272;2022-08-03T02:08:36;2.63;;;2.00;;
17189;SDS011;8710;49.880;8.272;2022-08-03T02:11:04;2.50;;;2.30;;
17189;SDS011;8710;49.880;8.272;2022-08-03T02:13:32;2.30;;;2.10;;
17189;SDS011;8710;49.880;8.272;2022-08-03T02:16:00;2.10;;;1.90;;
17189;SDS011;8710;49.880;8.272;2022-08-03T02:18:29;4.03;;;2.07;;
17189;SDS011;8710;49.880;8.272;2022-08-03T02:20:58;3.30;;;2.80;;
17189;SDS011;8710;49.880;8.272;2022-08-03T02:23:26;3.33;;;2.17;;
17189;SDS011;8710;49.880;8.272;2022-08-03T02:25:58;3.40;;;2.03;;
17189;SDS011;8710;49.880;8.272;2022-08-03T02:28:28;5.40;;;2.50;;
17189;SDS011;8710;49.880;8.272;2022-08-03T02:30:59;2.50;;;2.27;;
17189;SDS011;8710;49.880;8.272;2022-08-03T02:33:31;3.53;;;2.27;;
17189;SDS011;8710;49.880;8.272;2022-08-03T02:36:03;2.77;;;2.20;;
17189;SDS011;8710;49.880;8.272;2022-08-03T02:38:33;2.40;;;2.20;;
17189;SDS011;8710;49.880;8.272;2022-08-03T02:41:06;2.30;;;2.07;;
17189;SDS011;8710;49.880;8.272;2022-08-03T02:43:38;3.13;;;2.20;;
17189;SDS011;8710;49.880;8.272;2022-08-03T02:46:06;3.57;;;2.37;;
17189;SDS011;8710;49.880;8.272;2022-08-03T02:48:35;2.60;;;2.40;;
17189;SDS011;8710;49.880;8.272;2022-08-03T02:51:05;2.50;;;2.30;;
17189;SDS011;8710;49.880;8.272;2022-08-03T02:53:32;3.77;;;2.40;;
17189;SDS011;8710;49.880;8.272;2022-08-03T02:56:01;3.50;;;2.20;;
17189;SDS011;8710;49.880;8.272;2022-08-03T02:58:29;3.43;;;2.60;;
17189;SDS011;8710;49.880;8.272;2022-08-03T03:00:57;3.93;;;2.27;;
17189;SDS011;8710;49.880;8.272;2022-08-03T03:03:25;5.50;;;2.27;;
17189;SDS011;8710;49.880;8.272;2022-08-03T03:05:52;4.33;;;2.63;;
17189;SDS011;8710;49.880;8.272;2022-08-03T03:08:22;2.63;;;2.43;;
17189;SDS011;8710;49.880;8.272;2022-08-03T03:10:50;3.47;;;2.30;;
17189;SDS011;8710;49.880;8.272;2022-08-03T03:13:20;2.50;;;2.30;;
17189;SDS011;8710;49.880;8.272;2022-08-03T03:15:48;3.40;;;2.77;;
17189;SDS011;8710;49.880;8.272;2022-08-03T03:18:15;3.57;;;2.50;;
17189;SDS011;8710;49.880;8.272;2022-08-03T03:20:43;3.60;;;2.53;;
17189;SDS011;8710;49.880;8.272;2022-08-03T03:23:11;4.70;;;2.93;;
17189;SDS011;8710;49.880;8.272;2022-08-03T03:25:40;3.03;;;2.47;;
17189;SDS011;8710;49.880;8.272;2022-08-03T03:28:08;4.33;;;2.40;;
17189;SDS011;8710;49.880;8.272;2022-08-03T03:30:36;2.80;;;2.60;;
17189;SDS011;8710;49.880;8.272;2022-08-03T03:33:04;2.97;;;2.40;;
17189;SDS011;8710;49.880;8.272;2022-08-03T03:35:31;3.97;;;2.57;;
17189;SDS011;8710;49.880;8.272;2022-08-03T03:37:58;2.70;;;2.40;;
17189;SDS011;8710;49.880;8.272;2022-08-03T03:40:25;3.33;;;2.60;;
17189;SDS011;8710;49.880;8.272;2022-08-03T03:42:54;3.90;;;2.50;;
17189;SDS011;8710;49.880;8.272;2022-08-03T03:45:21;5.63;;;2.70;;
17189;SDS011;8710;49.880;8.272;2022-08-03T03:47:49;4.17;;;2.33;;
17189;SDS011;8710;49.880;8.272;2022-08-03T03:50:16;5.00;;;2.67;;
17189;SDS011;8710;49.880;8.272;2022-08-03T03:52:44;3.87;;;2.60;;
17189;SDS011;8710;49.880;8.272;2022-08-03T03:55:14;5.13;;;3.30;;
17189;SDS011;8710;49.880;8.272;2022-08-03T03:57:41;4.07;;;2.97;;
17189;SDS011;8710;49.880;8.272;2022-08-03T04:00:11;8.80;;;2.90;;
17189;SDS011;8710;49.880;8.272;2022-08-03T04:02:39;2.57;;;2.37;;
17189;SDS011;8710;49.880;8.272;2022-08-03T04:05:07;4.57;;;2.90;;
17189;SDS011;8710;49.880;8.272;2022-08-03T04:08:00;3.37;;;2.60;;
17189;SDS011;8710;49.880;8.272;2022-08-03T04:10:53;3.60;;;2.97;;
17189;SDS011;8710;49.880;8.272;2022-08-03T04:13:26;3.67;;;2.67;;
17189;SDS011;8710;49.880;8.272;2022-08-03T04:15:58;6.00;;;2.97;;
17189;SDS011;8710;49.880;8.272;2022-08-03T04:18:26;4.17;;;2.50;;
17189;SDS011;8710;49.880;8.272;2022-08-03T04:20:55;3.30;;;3.00;;
17189;SDS011;8710;49.880;8.272;2022-08-03T04:23:24;5.23;;;2.70;;
17189;SDS011;8710;49.880;8.272;2022-08-03T04:25:53;5.63;;;2.30;;
17189;SDS011;8710;49.880;8.272;2022-08-03T04:28:22;4.73;;;2.70;;
17189;SDS011;8710;49.880;8.272;2022-08-03T04:30:50;3.00;;;2.40;;
17189;SDS011;8710;49.880;8.272;2022-08-03T04:33:20;6.63;;;3.10;;
17189;SDS011;8710;49.880;8.272;2022-08-03T04:35:49;2.80;;;2.27;;
17189;SDS011;8710;49.880;8.272;2022-08-03T04:38:20;5.17;;;2.87;;
17189;SDS011;8710;49.880;8.272;2022-08-03T04:40:51;4.30;;;2.73;;
17189;SDS011;8710;49.880;8.272;2022-08-03T04:43:18;3.40;;;2.83;;
17189;SDS011;8710;49.880;8.272;2022-08-03T04:45:47;3.40;;;3.00;;
17189;SDS011;8710;49.880;8.272;2022-08-03T04:48:16;3.70;;;2.83;;
17189;SDS011;8710;49.880;8.272;2022-08-03T04:50:45;3.13;;;2.60;;
17189;SDS011;8710;49.880;8.272;2022-08-03T04:53:13;4.33;;;2.87;;
17189;SDS011;8710;49.880;8.272;2022-08-03T04:55:41;4.20;;;2.70;;
17189;SDS011;8710;49.880;8.272;2022-08-03T04:58:08;3.70;;;2.80;;
17189;SDS011;8710;49.880;8.272;2022-08-03T05:00:36;2.70;;;2.47;;
17189;SDS011;8710;49.880;8.272;2022-08-03T05:03:03;3.13;;;2.80;;
17189;SDS011;8710;49.880;8.272;2022-08-03T05:05:30;5.83;;;2.47;;
17189;SDS011;8710;49.880;8.272;2022-08-03T05:07:58;3.53;;;2.87;;
17189;SDS011;8710;49.880;8.272;2022-08-03T05:10:25;3.73;;;2.70;;
17189;SDS011;8710;49.880;8.272;2022-08-03T05:12:52;4.83;;;2.70;;
17189;SDS011;8710;49.880;8.272;2022-08-03T05:15:19;6.67;;;2.90;;
17189;SDS011;8710;49.880;8.272;2022-08-03T05:17:46;2.67;;;2.47;;
17189;SDS011;8710;49.880;8.272;2022-08-03T05:20:14;4.53;;;2.73;;
17189;SDS011;8710;49.880;8.272;2022-08-03T05:22:41;6.13;;;3.23;;
17189;SDS011;8710;49.880;8.272;2022-08-03T05:25:09;3.00;;;2.70;;
17189;SDS011;8710;49.880;8.272;2022-08-03T05:27:36;4.37;;;2.83;;
17189;SDS011;8710;49.880;8.272;2022-08-03T05:30:03;3.70;;;2.70;;
17189;SDS011;8710;49.880;8.272;2022-08-03T05:32:31;3.30;;;2.67;;
17189;SDS011;8710;49.880;8.272;2022-08-03T05:34:57;5.37;;;3.40;;
17189;SDS011;8710;49.880;8.272;2022-08-03T05:37:25;4.00;;;2.60;;
17189;SDS011;8710;49.880;8.272;2022-08-03T05:39:51;5.50;;;2.83;;
17189;SDS011;8710;49.880;8.272;2022-08-03T05:44:48;5.10;;;3.33;;
17189;SDS011;8710;49.880;8.272;2022-08-03T05:47:15;4.35;;;2.95;;
17189;SDS011;8710;49.880;8.272;2022-08-03T05:49:43;4.88;;;3.08;;
17189;SDS011;8710;49.880;8.272;2022-08-03T05:52:10;4.53;;;2.97;;
17189;SDS011;8710;49.880;8.272;2022-08-03T05:54:37;6.27;;;3.33;;
17189;SDS011;8710;49.880;8.272;2022-08-03T05:57:04;3.72;;;3.42;;
17189;SDS011;8710;49.880;8.272;2022-08-03T05:59:31;6.20;;;4.18;;
17189;SDS011;8710;49.880;8.272;2022-08-03T06:01:59;6.95;;;3.95;;
17189;SDS011;8710;49.880;8.272;2022-08-03T06:04:27;6.55;;;4.20;;
17189;SDS011;8710;49.880;8.272;2022-08-03T06:06:54;5.97;;;4.10;;
17189;SDS011;8710;49.880;8.272;2022-08-03T06:09:21;13.27;;;4.13;;
17189;SDS011;8710;49.880;8.272;2022-08-03T06:11:48;6.13;;;3.80;;
17189;SDS011;8710;49.880;8.272;2022-08-03T06:14:15;4.40;;;3.67;;
17189;SDS011;8710;49.880;8.272;2022-08-03T06:16:42;5.57;;;4.22;;
17189;SDS011;8710;49.880;8.272;2022-08-03T06:19:10;6.72;;;3.63;;
17189;SDS011;8710;49.880;8.272;2022-08-03T06:21:37;8.70;;;4.00;;
17189;SDS011;8710;49.880;8.272;2022-08-03T06:24:04;4.10;;;3.55;;
17189;SDS011;8710;49.880;8.272;2022-08-03T06:26:32;4.20;;;3.80;;
17189;SDS011;8710;49.880;8.272;2022-08-03T06:28:59;6.90;;;3.80;;
17189;SDS011;8710;49.880;8.272;2022-08-03T06:31:26;5.10;;;4.00;;
17189;SDS011;8710;49.880;8.272;2022-08-03T06:33:54;6.00;;;4.10;;
17189;SDS011;8710;49.880;8.272;2022-08-03T06:36:22;9.77;;;3.95;;
17189;SDS011;8710;49.880;8.272;2022-08-03T06:38:55;5.70;;;3.65;;
17189;SDS011;8710;49.880;8.272;2022-08-03T06:41:22;4.30;;;3.90;;
17189;SDS011;8710;49.880;8.272;2022-08-03T06:43:49;4.45;;;3.63;;
17189;SDS011;8710;49.880;8.272;2022-08-03T06:46:16;8.50;;;3.80;;
17189;SDS011;8710;49.880;8.272;2022-08-03T06:48:43;4.55;;;3.40;;
17189;SDS011;8710;49.880;8.272;2022-08-03T06:51:10;4.07;;;3.50;;
17189;SDS011;8710;49.880;8.272;2022-08-03T06:53:39;4.25;;;3.50;;
17189;SDS011;8710;49.880;8.272;2022-08-03T06:56:06;3.63;;;3.33;;
17189;SDS011;8710;49.880;8.272;2022-08-03T06:58:33;4.00;;;3.50;;
17189;SDS011;8710;49.880;8.272;2022-08-03T07:01:00;6.80;;;3.47;;
17189;SDS011;8710;49.880;8.272;2022-08-03T07:03:27;5.53;;;3.20;;
17189;SDS011;8710;49.880;8.272;2022-08-03T07:05:54;3.53;;;3.22;;
17189;SDS011;8710;49.880;8.272;2022-08-03T07:08:21;5.45;;;3.47;;
17189;SDS011;8710;49.880;8.272;2022-08-03T07:10:50;6.03;;;3.58;;
17189;SDS011;8710;49.880;8.272;2022-08-03T07:13:17;5.60;;;3.20;;
17189;SDS011;8710;49.880;8.272;2022-08-03T07:15:44;3.45;;;2.67;;
17189;SDS011;8710;49.880;8.272;2022-08-03T07:18:11;6.47;;;3.10;;
17189;SDS011;8710;49.880;8.272;2022-08-03T07:20:38;4.90;;;2.88;;
17189;SDS011;8710;49.880;8.272;2022-08-03T07:23:05;5.38;;;3.00;;
17189;SDS011;8710;49.880;8.272;2022-08-03T07:25:33;5.72;;;2.83;;
17189;SDS011;8710;49.880;8.272;2022-08-03T07:28:02;3.28;;;2.67;;
17189;SDS011;8710;49.880;8.272;2022-08-03T07:30:29;3.78;;;2.85;;
17189;SDS011;8710;49.880;8.272;2022-08-03T07:32:56;5.50;;;2.55;;
17189;SDS011;8710;49.880;8.272;2022-08-03T07:35:23;5.35;;;2.50;;
17189;SDS011;8710;49.880;8.272;2022-08-03T07:37:51;4.75;;;2.90;;
17189;SDS011;8710;49.880;8.272;2022-08-03T07:40:18;6.15;;;2.88;;
17189;SDS011;8710;49.880;8.272;2022-08-03T07:42:45;7.38;;;2.63;;
17189;SDS011;8710;49.880;8.272;2022-08-03T07:45:13;5.90;;;2.67;;
17189;SDS011;8710;49.880;8.272;2022-08-03T07:47:40;5.13;;;2.47;;
17189;SDS011;8710;49.880;8.272;2022-08-03T07:50:07;4.43;;;2.53;;
17189;SDS011;8710;49.880;8.272;2022-08-03T07:52:34;3.03;;;2.50;;
17189;SDS011;8710;49.880;8.272;2022-08-03T07:55:13;4.13;;;2.42;;
17189;SDS011;8710;49.880;8.272;2022-08-03T07:57:41;2.83;;;2.40;;
17189;SDS011;8710;49.880;8.272;2022-08-03T08:00:13;3.28;;;2.38;;
17189;SDS011;8710;49.880;8.272;2022-08-03T08:02:42;3.28;;;2.50;;
17189;SDS011;8710;49.880;8.272;2022-08-03T08:05:09;5.47;;;2.70;;
17189;SDS011;8710;49.880;8.272;2022-08-03T08:07:37;5.45;;;2.53;;
17189;SDS011;8710;49.880;8.272;2022-08-03T08:10:04;2.70;;;2.35;;
17189;SDS011;8710;49.880;8.272;2022-08-03T08:12:34;5.20;;;2.60;;
17189;SDS011;8710;49.880;8.272;2022-08-03T08:15:01;2.88;;;2.53;;
17189;SDS011;8710;49.880;8.272;2022-08-03T08:17:29;4.80;;;2.50;;
17189;SDS011;8710;49.880;8.272;2022-08-03T08:19:56;4.35;;;2.60;;
17189;SDS011;8710;49.880;8.272;2022-08-03T08:22:23;4.15;;;2.38;;
17189;SDS011;8710;49.880;8.272;2022-08-03T08:24:50;3.45;;;2.60;;
17189;SDS011;8710;49.880;8.272;2022-08-03T08:27:17;4.38;;;2.67;;
17189;SDS011;8710;49.880;8.272;2022-08-03T08:29:43;2.80;;;2.40;;
17189;SDS011;8710;49.880;8.272;2022-08-03T08:32:11;2.50;;;2.28;;
17189;SDS011;8710;49.880;8.272;2022-08-03T08:34:41;2.58;;;2.33;;
17189;SDS011;8710;49.880;8.272;2022-08-03T08:37:08;7.47;;;2.60;;
17189;SDS011;8710;49.880;8.272;2022-08-03T08:39:35;3.58;;;2.25;;
17189;SDS011;8710;49.880;8.272;2022-08-03T08:42:02;3.47;;;2.38;;
17189;SDS011;8710;49.880;8.272;2022-08-03T08:44:29;2.38;;;2.17;;
17189;SDS011;8710;49.880;8.272;2022-08-03T08:46:56;2.47;;;2.28;;
17189;SDS011;8710;49.880;8.272;2022-08-03T08:49:27;3.40;;;2.35;;
17189;SDS011;8710;49.880;8.272;2022-08-03T08:51:56;2.25;;;2.10;;
17189;SDS011;8710;49.880;8.272;2022-08-03T08:54:24;5.32;;;2.22;;
17189;SDS011;8710;49.880;8.272;2022-08-03T08:56:51;2.55;;;2.30;;
17189;SDS011;8710;49.880;8.272;2022-08-03T08:59:21;2.05;;;1.95;;
17189;SDS011;8710;49.880;8.272;2022-08-03T09:01:48;2.75;;;1.90;;
17189;SDS011;8710;49.880;8.272;2022-08-03T09:04:15;2.25;;;2.15;;
17189;SDS011;8710;49.880;8.272;2022-08-03T09:06:42;2.20;;;2.10;;
17189;SDS011;8710;49.880;8.272;2022-08-03T09:09:11;4.00;;;2.00;;
17189;SDS011;8710;49.880;8.272;2022-08-03T09:11:40;2.35;;;2.08;;
17189;SDS011;8710;49.880;8.272;2022-08-03T09:14:07;2.67;;;2.05;;
17189;SDS011;8710;49.880;8.272;2022-08-03T09:16:35;2.65;;;2.35;;
17189;SDS011;8710;49.880;8.272;2022-08-03T09:19:09;3.25;;;2.17;;
17189;SDS011;8710;49.880;8.272;2022-08-03T09:21:37;2.75;;;2.20;;
17189;SDS011;8710;49.880;8.272;2022-08-03T09:24:04;2.08;;;1.98;;
17189;SDS011;8710;49.880;8.272;2022-08-03T09:26:34;2.47;;;2.28;;
17189;SDS011;8710;49.880;8.272;2022-08-03T09:29:02;2.17;;;2.08;;
17189;SDS011;8710;49.880;8.272;2022-08-03T09:31:31;2.47;;;2.28;;
17189;SDS011;8710;49.880;8.272;2022-08-03T09:34:02;2.20;;;2.00;;
17189;SDS011;8710;49.880;8.272;2022-08-03T09:36:34;2.70;;;2.50;;
17189;SDS011;8710;49.880;8.272;2022-08-03T09:39:02;3.00;;;2.70;;
17189;SDS011;8710;49.880;8.272;2022-08-03T09:41:30;3.88;;;2.58;;
17189;SDS011;8710;49.880;8.272;2022-08-03T09:43:58;3.35;;;2.50;;
17189;SDS011;8710;49.880;8.272;2022-08-03T09:46:26;3.22;;;2.40;;
17189;SDS011;8710;49.880;8.272;2022-08-03T09:49:07;2.75;;;2.50;;
17189;SDS011;8710;49.880;8.272;2022-08-03T09:51:36;3.00;;;2.70;;
17189;SDS011;8710;49.880;8.272;2022-08-03T09:54:04;2.83;;;2.33;;
17189;SDS011;8710;49.880;8.272;2022-08-03T09:56:44;2.67;;;2.45;;
17189;SDS011;8710;49.880;8.272;2022-08-03T09:59:21;3.10;;;2.90;;
17189;SDS011;8710;49.880;8.272;2022-08-03T10:01:49;5.30;;;3.00;;
17189;SDS011;8710;49.880;8.272;2022-08-03T10:04:17;3.03;;;2.70;;
17189;SDS011;8710;49.880;8.272;2022-08-03T10:06:44;2.80;;;2.60;;
17189;SDS011;8710;49.880;8.272;2022-08-03T10:09:12;2.80;;;2.65;;
17189;SDS011;8710;49.880;8.272;2022-08-03T10:11:42;5.28;;;2.55;;
17189;SDS011;8710;49.880;8.272;2022-08-03T10:14:11;3.75;;;2.50;;
17189;SDS011;8710;49.880;8.272;2022-08-03T10:16:44;4.60;;;2.90;;
17189;SDS011;8710;49.880;8.272;2022-08-03T10:19:11;3.03;;;2.70;;
17189;SDS011;8710;49.880;8.272;2022-08-03T10:21:40;3.85;;;2.50;;
17189;SDS011;8710;49.880;8.272;2022-08-03T10:24:10;2.45;;;2.35;;
17189;SDS011;8710;49.880;8.272;2022-08-03T10:26:39;3.40;;;2.28;;
17189;SDS011;8710;49.880;8.272;2022-08-03T10:29:10;2.53;;;2.30;;
17189;SDS011;8710;49.880;8.272;2022-08-03T10:31:44;3.60;;;2.45;;
17189;SDS011;8710;49.880;8.272;2022-08-03T10:34:14;4.40;;;2.40;;
17189;SDS011;8710;49.880;8.272;2022-08-03T10:36:49;2.65;;;2.30;;
17189;SDS011;8710;49.880;8.272;2022-08-03T10:39:19;3.47;;;2.08;;
17189;SDS011;8710;49.880;8.272;2022-08-03T10:41:48;2.60;;;2.30;;
17189;SDS011;8710;49.880;8.272;2022-08-03T10:44:18;2.22;;;2.13;;
17189;SDS011;8710;49.880;8.272;2022-08-03T10:46:48;2.13;;;2.03;;
17189;SDS011;8710;49.880;8.272;2022-08-03T10:49:17;2.58;;;2.20;;
17189;SDS011;8710;49.880;8.272;2022-08-03T10:51:45;3.97;;;2.70;;
17189;SDS011;8710;49.880;8.272;2022-08-03T10:57:45;3.05;;;2.30;;
17189;SDS011;8710;49.880;8.272;2022-08-03T11:00:19;2.40;;;2.30;;
17189;SDS011;8710;49.880;8.272;2022-08-03T11:03:05;3.97;;;2.70;;
17189;SDS011;8710;49.880;8.272;2022-08-03T11:05:35;2.80;;;2.60;;
17189;SDS011;8710;49.880;8.272;2022-08-03T11:08:19;2.75;;;2.65;;
17189;SDS011;8710;49.880;8.272;2022-08-03T11:10:47;3.00;;;2.80;;
17189;SDS011;8710;49.880;8.272;2022-08-03T11:13:15;3.20;;;2.90;;
17189;SDS011;8710;49.880;8.272;2022-08-03T11:15:45;3.40;;;3.20;;
17189;SDS011;8710;49.880;8.272;2022-08-03T11:18:13;3.58;;;3.20;;
17189;SDS011;8710;49.880;8.272;2022-08-03T11:20:44;3.38;;;3.08;;
17189;SDS011;8710;49.880;8.272;2022-08-03T11:23:12;3.53;;;2.88;;
17189;SDS011;8710;49.880;8.272;2022-08-03T11:28:37;3.35;;;3.10;;
17189;SDS011;8710;49.880;8.272;2022-08-03T11:34:03;3.60;;;2.63;;
17189;SDS011;8710;49.880;8.272;2022-08-03T11:36:30;3.25;;;2.80;;
17189;SDS011;8710;49.880;8.272;2022-08-03T11:39:39;3.00;;;2.80;;
17189;SDS011;8710;49.880;8.272;2022-08-03T11:45:14;3.20;;;2.38;;
17189;SDS011;8710;49.880;8.272;2022-08-03T11:47:43;2.53;;;2.42;;
17189;SDS011;8710;49.880;8.272;2022-08-03T11:50:12;2.40;;;2.20;;
17189;SDS011;8710;49.880;8.272;2022-08-03T11:52:41;2.65;;;2.00;;
17189;SDS011;8710;49.880;8.272;2022-08-03T11:55:12;2.47;;;2.00;;
17189;SDS011;8710;49.880;8.272;2022-08-03T11:57:41;2.00;;;1.90;;
17189;SDS011;8710;49.880;8.272;2022-08-03T12:00:20;2.10;;;1.90;;
17189;SDS011;8710;49.880;8.272;2022-08-03T12:02:54;2.33;;;2.00;;
17189;SDS011;8710;49.880;8.272;2022-08-03T12:05:37;2.25;;;2.05;;
17189;SDS011;8710;49.880;8.272;2022-08-03T12:08:06;2.10;;;2.00;;
17189;SDS011;8710;49.880;8.272;2022-08-03T12:10:34;1.90;;;1.80;;
17189;SDS011;8710;49.880;8.272;2022-08-03T12:13:02;2.22;;;2.05;;
17189;SDS011;8710;49.880;8.272;2022-08-03T12:15:33;2.13;;;1.95;;
17189;SDS011;8710;49.880;8.272;2022-08-03T12:18:01;2.45;;;1.83;;
17189;SDS011;8710;49.880;8.272;2022-08-03T12:20:30;3.17;;;1.80;;
17189;SDS011;8710;49.880;8.272;2022-08-03T12:23:02;2.00;;;1.90;;
17189;SDS011;8710;49.880;8.272;2022-08-03T12:25:31;2.17;;;1.80;;
17189;SDS011;8710;49.880;8.272;2022-08-03T12:28:05;2.17;;;2.08;;
17189;SDS011;8710;49.880;8.272;2022-08-03T12:30:34;2.63;;;2.10;;
17189;SDS011;8710;49.880;8.272;2022-08-03T12:33:10;1.92;;;1.83;;
17189;SDS011;8710;49.880;8.272;2022-08-03T12:35:41;2.97;;;2.00;;
17189;SDS011;8710;49.880;8.272;2022-08-03T12:38:10;2.45;;;2.10;;
17189;SDS011;8710;49.880;8.272;2022-08-03T12:40:37;2.72;;;2.13;;
17189;SDS011;8710;49.880;8.272;2022-08-03T12:43:11;3.42;;;2.10;;
17189;SDS011;8710;49.880;8.272;2022-08-03T12:45:38;2.20;;;2.10;;
17189;SDS011;8710;49.880;8.272;2022-08-03T12:48:07;2.85;;;2.13;;
17189;SDS011;8710;49.880;8.272;2022-08-03T12:50:36;2.30;;;2.17;;
17189;SDS011;8710;49.880;8.272;2022-08-03T12:53:04;3.75;;;1.98;;
17189;SDS011;8710;49.880;8.272;2022-08-03T12:55:34;1.92;;;1.80;;
17189;SDS011;8710;49.880;8.272;2022-08-03T12:58:03;2.22;;;1.92;;
17189;SDS011;8710;49.880;8.272;2022-08-03T13:00:31;3.08;;;2.20;;
17189;SDS011;8710;49.880;8.272;2022-08-03T13:02:58;2.95;;;2.03;;
17189;SDS011;8710;49.880;8.272;2022-08-03T13:05:29;1.88;;;1.77;;
17189;SDS011;8710;49.880;8.272;2022-08-03T13:07:56;3.65;;;2.10;;
17189;SDS011;8710;49.880;8.272;2022-08-03T13:10:27;1.90;;;1.80;;
17189;SDS011;8710;49.880;8.272;2022-08-03T13:12:57;1.95;;;1.85;;
17189;SDS011;8710;49.880;8.272;2022-08-03T13:15:27;2.13;;;2.03;;
17189;SDS011;8710;49.880;8.272;2022-08-03T13:17:55;2.08;;;1.88;;
17189;SDS011;8710;49.880;8.272;2022-08-03T13:20:22;4.28;;;2.08;;
17189;SDS011;8710;49.880;8.272;2022-08-03T13:22:49;2.97;;;1.90;;
17189;SDS011;8710;49.880;8.272;2022-08-03T13:25:16;1.77;;;1.70;;
17189;SDS011;8710;49.880;8.272;2022-08-03T13:27:44;2.45;;;2.03;;
17189;SDS011;8710;49.880;8.272;2022-08-03T13:30:13;2.90;;;1.80;;
17189;SDS011;8710;49.880;8.272;2022-08-03T13:32:41;2.22;;;1.92;;
17189;SDS011;8710;49.880;8.272;2022-08-03T13:35:08;2.03;;;1.80;;
17189;SDS011;8710;49.880;8.272;2022-08-03T13:37:35;2.97;;;1.90;;
17189;SDS011;8710;49.880;8.272;2022-08-03T13:40:02;2.30;;;1.80;;
17189;SDS011;8710;49.880;8.272;2022-08-03T13:42:32;1.85;;;1.75;;
17189;SDS011;8710;49.880;8.272;2022-08-03T13:45:00;2.00;;;1.90;;
17189;SDS011;8710;49.880;8.272;2022-08-03T13:47:29;2.45;;;1.73;;
17189;SDS011;8710;49.880;8.272;2022-08-03T13:49:56;2.22;;;1.90;;
17189;SDS011;8710;49.880;8.272;2022-08-03T13:52:23;3.58;;;1.90;;
17189;SDS011;8710;49.880;8.272;2022-08-03T13:54:50;1.73;;;1.60;;
17189;SDS011;8710;49.880;8.272;2022-08-03T13:57:17;2.55;;;1.70;;
17189;SDS011;8710;49.880;8.272;2022-08-03T13:59:44;3.80;;;1.48;;
17189;SDS011;8710;49.880;8.272;2022-08-03T14:02:10;1.60;;;1.50;;
17189;SDS011;8710;49.880;8.272;2022-08-03T14:04:39;1.80;;;1.70;;
17189;SDS011;8710;49.880;8.272;2022-08-03T14:07:06;1.77;;;1.65;;
17189;SDS011;8710;49.880;8.272;2022-08-03T14:09:33;4.97;;;1.50;;
17189;SDS011;8710;49.880;8.272;2022-08-03T14:11:59;1.88;;;1.58;;
17189;SDS011;8710;49.880;8.272;2022-08-03T14:14:26;1.70;;;1.60;;
17189;SDS011;8710;49.880;8.272;2022-08-03T14:16:53;1.70;;;1.52;;
17189;SDS011;8710;49.880;8.272;2022-08-03T14:19:20;4.78;;;1.55;;
17189;SDS011;8710;49.880;8.272;2022-08-03T14:21:49;4.20;;;1.63;;
17189;SDS011;8710;49.880;8.272;2022-08-03T14:24:16;1.65;;;1.55;;
17189;SDS011;8710;49.880;8.272;2022-08-03T14:26:43;2.28;;;1.77;;
17189;SDS011;8710;49.880;8.272;2022-08-03T14:29:10;3.72;;;1.98;;
17189;SDS011;8710;49.880;8.272;2022-08-03T14:31:37;1.80;;;1.70;;
17189;SDS011;8710;49.880;8.272;2022-08-03T14:34:04;1.95;;;1.55;;
17189;SDS011;8710;49.880;8.272;2022-08-03T14:36:31;1.55;;;1.45;;
17189;SDS011;8710;49.880;8.272;2022-08-03T14:39:00;3.28;;;1.80;;
17189;SDS011;8710;49.880;8.272;2022-08-03T14:41:27;3.03;;;1.52;;
17189;SDS011;8710;49.880;8.272;2022-08-03T14:43:54;1.67;;;1.58;;
17189;SDS011;8710;49.880;8.272;2022-08-03T14:46:21;1.83;;;1.67;;
17189;SDS011;8710;49.880;8.272;2022-08-03T14:48:48;2.15;;;1.60;;
17189;SDS011;8710;49.880;8.272;2022-08-03T14:51:15;4.53;;;1.80;;
17189;SDS011;8710;49.880;8.272;2022-08-03T14:53:43;1.70;;;1.60;;
17189;SDS011;8710;49.880;8.272;2022-08-03T14:56:11;3.08;;;1.80;;
17189;SDS011;8710;49.880;8.272;2022-08-03T14:58:38;1.55;;;1.45;;
17189;SDS011;8710;49.880;8.272;2022-08-03T15:01:05;3.30;;;1.60;;
17189;SDS011;8710;49.880;8.272;2022-08-03T15:03:32;2.30;;;1.50;;
17189;SDS011;8710;49.880;8.272;2022-08-03T15:05:59;6.53;;;1.70;;
17189;SDS011;8710;49.880;8.272;2022-08-03T15:08:26;1.70;;;1.60;;
17189;SDS011;8710;49.880;8.272;2022-08-03T15:10:53;1.70;;;1.60;;
17189;SDS011;8710;49.880;8.272;2022-08-03T15:13:21;2.15;;;1.73;;
17189;SDS011;8710;49.880;8.272;2022-08-03T15:15:49;1.85;;;1.75;;
17189;SDS011;8710;49.880;8.272;2022-08-03T15:18:16;2.08;;;1.77;;
17189;SDS011;8710;49.880;8.272;2022-08-03T15:20:44;1.88;;;1.73;;
17189;SDS011;8710;49.880;8.272;2022-08-03T15:23:13;1.65;;;1.55;;
17189;SDS011;8710;49.880;8.272;2022-08-03T15:25:40;3.53;;;1.65;;